Time;durP1;ratioP1;P1;durP2;ratioP2;P2;SDS_P1;SDS_P2;PMS_P1;PMS_P2;Temp;Humidity;BMP_temperature;BMP_pressure;BME280_temperature;BME280_humidity;BME280_pressure;Samples;Min_cycle;Max_cycle;Signal;HPM_P1;HPM_P2
2022/06/13 00:04:07;;;;;;;34.40;17.20;;;;;;;15.49;100.00;97625.56;10461541;28;19912;-58
2022/06/13 00:09:07;;;;;;;32.20;17.15;;;;;;;15.48;100.00;97635.13;10461001;28;20515;-58
2022/06/13 00:14:06;;;;;;;24.15;14.10;;;;;;;15.54;100.00;97629.78;10461034;28;20514;-58
2022/06/13 00:19:05;;;;;;;21.33;13.02;;;;;;;15.53;100.00;97622.84;10460390;28;20486;-58
2022/06/13 00:24:07;;;;;;;21.67;12.30;;;;;;;15.48;100.00;97624.66;10442598;28;20067;-57
2022/06/13 00:29:06;;;;;;;20.25;12.38;;;;;;;15.41;100.00;97631.81;10459804;28;20513;-58
2022/06/13 00:34:05;;;;;;;22.63;13.10;;;;;;;15.35;100.00;97631.09;10459744;28;20071;-58
2022/06/13 00:39:04;;;;;;;;;;;;;;;15.28;100.00;97639.97;10461614;28;20151;-58
2022/06/13 00:44:18;;;;;;;24.05;13.15;;;;;;;15.29;100.00;97641.69;10459815;28;19951;-58
2022/06/13 00:49:23;;;;;;;23.90;13.07;;;;;;;15.37;100.00;97621.47;10459192;28;20478;-57
2022/06/13 00:54:23;;;;;;;27.02;14.18;;;;;;;15.43;100.00;97623.91;10459835;28;20080;-58
2022/06/13 00:59:25;;;;;;;33.90;14.85;;;;;;;15.42;100.00;97635.28;10459733;28;20486;-57
2022/06/13 01:04:25;;;;;;;39.17;16.27;;;;;;;15.17;100.00;97633.19;10458887;28;20063;-58
2022/06/13 01:14:44;;;;;;;46.65;17.20;;;;;;;15.16;100.00;97651.53;10458893;28;20068;-58
2022/06/13 01:20:05;;;;;;;46.78;16.33;;;;;;;15.20;100.00;97653.19;10457930;28;20060;-58
2022/06/13 01:25:09;;;;;;;54.85;17.63;;;;;;;15.24;100.00;97645.25;10458167;28;20060;-57
2022/06/13 01:30:11;;;;;;;46.15;17.42;;;;;;;15.32;100.00;97639.88;10458433;28;20070;-57
2022/06/13 01:35:31;;;;;;;49.65;18.85;;;;;;;15.42;100.00;97638.75;10457555;28;20070;-57
2022/06/13 01:40:39;;;;;;;38.38;16.23;;;;;;;15.51;100.00;97642.06;10456917;28;20063;-58
2022/06/13 01:46:08;;;;;;;35.65;16.95;;;;;;;15.56;100.00;97641.06;10457667;28;20063;-57
2022/06/13 01:51:23;;;;;;;42.30;15.93;;;;;;;15.63;100.00;97633.94;10456340;28;20082;-57
2022/06/13 01:56:32;;;;;;;29.67;16.02;;;;;;;15.66;100.00;97631.25;10457211;28;20072;-57
2022/06/13 02:01:38;;;;;;;28.65;15.40;;;;;;;15.55;100.00;97641.97;10456599;28;20062;-57
2022/06/13 02:06:43;;;;;;;37.92;16.73;;;;;;;15.51;100.00;97636.84;10456682;28;20052;-57
2022/06/13 02:11:50;;;;;;;44.03;18.73;;;;;;;15.52;100.00;97649.88;10456808;28;20070;-58
2022/06/13 02:17:08;;;;;;;43.08;18.20;;;;;;;15.51;100.00;97648.16;10456438;28;20463;-57
2022/06/13 02:22:16;;;;;;;29.80;15.70;;;;;;;15.54;100.00;97652.47;10455796;28;20498;-58
2022/06/13 02:27:18;;;;;;;27.83;14.98;;;;;;;15.55;100.00;97644.59;10455893;28;20056;-57
2022/06/13 02:32:34;;;;;;;27.67;15.43;;;;;;;15.57;100.00;97650.63;10455478;28;20055;-57
2022/06/13 02:37:38;;;;;;;35.95;15.90;;;;;;;15.54;100.00;97637.63;10455370;28;20067;-57
2022/06/13 02:42:40;;;;;;;35.83;16.40;;;;;;;15.63;100.00;97645.25;10455180;28;20070;-57
2022/06/13 02:47:53;;;;;;;32.50;17.15;;;;;;;15.53;100.00;97651.59;10457636;28;20028;-57
2022/06/13 02:53:08;;;;;;;33.53;16.92;;;;;;;15.36;100.00;97658.94;10458671;28;20088;-57
2022/06/13 02:58:22;;;;;;;35.53;17.40;;;;;;;15.19;100.00;97659.31;10458284;28;20070;-57
2022/06/13 03:03:29;;;;;;;32.38;15.85;;;;;;;15.18;100.00;97661.06;10457153;28;20059;-57
2022/06/13 03:08:36;;;;;;;39.55;17.00;;;;;;;15.13;100.00;97662.03;10439033;28;20069;-57
2022/06/13 03:13:47;;;;;;;33.60;16.08;;;;;;;15.15;100.00;97663.72;10458344;28;20032;-57
2022/06/13 03:19:08;;;;;;;30.52;15.73;;;;;;;15.29;100.00;97663.44;10457405;28;20521;-57
2022/06/13 03:24:26;;;;;;;27.67;14.65;;;;;;;15.37;100.00;97650.22;10458150;28;20055;-57
2022/06/13 03:29:32;;;;;;;33.83;15.20;;;;;;;15.53;100.00;97661.19;10458048;28;20055;-57
2022/06/13 03:34:38;;;;;;;34.33;15.70;;;;;;;15.50;100.00;97662.13;10457129;28;20064;-57
2022/06/13 03:39:44;;;;;;;31.30;15.63;;;;;;;15.48;100.00;97655.19;10457133;28;20432;-57
2022/06/13 03:44:52;;;;;;;35.15;15.70;;;;;;;15.45;100.00;97663.97;10456794;28;20055;-57
2022/06/13 03:49:59;;;;;;;28.13;14.55;;;;;;;15.61;100.00;97659.28;10452585;28;20173;-58
2022/06/13 03:55:08;;;;;;;26.10;13.18;;;;;;;15.68;100.00;97659.09;10453758;28;20532;-57
2022/06/13 04:00:10;;;;;;;;;;;;;;;15.66;100.00;97673.94;10453695;28;20062;-57
2022/06/13 04:05:53;;;;;;;18.30;10.75;;;;;;;15.57;100.00;97658.47;10452643;28;19951;-57
2022/06/13 04:11:17;;;;;;;19.25;12.00;;;;;;;15.53;100.00;97662.06;10433894;28;20071;-58
2022/06/13 04:16:40;;;;;;;23.85;13.32;;;;;;;15.56;100.00;97646.28;10460563;28;20062;-57
2022/06/13 04:21:39;;;;;;;25.38;13.90;;;;;;;15.67;100.00;97651.28;10461137;28;20059;-57
2022/06/13 04:26:50;;;;;;;;;;;;;;;15.78;100.00;97651.88;10460904;28;20023;-57
2022/06/13 04:31:52;;;;;;;26.52;14.98;;;;;;;15.87;100.00;97648.22;10460085;28;20389;-57
2022/06/13 04:36:52;;;;;;;23.42;15.52;;;;;;;15.94;100.00;97638.47;10459957;28;20513;-57
2022/06/13 04:41:53;;;;;;;25.77;15.85;;;;;;;16.19;100.00;97655.31;10459677;28;20056;-57
2022/06/13 04:46:54;;;;;;;23.75;14.70;;;;;;;16.33;100.00;97651.47;10458779;28;20059;-57
2022/06/13 04:51:55;;;;;;;30.45;17.35;;;;;;;16.20;100.00;97658.78;10457317;28;20114;-57
2022/06/13 04:56:58;;;;;;;30.90;14.90;;;;;;;15.97;100.00;97635.78;10459759;28;20074;-57
2022/06/13 05:02:01;;;;;;;24.25;13.95;;;;;;;15.94;100.00;97649.81;10457599;28;20055;-58
2022/06/13 05:07:13;;;;;;;28.95;15.80;;;;;;;15.89;100.00;97654.28;10458657;28;20058;-58
2022/06/13 05:12:24;;;;;;;27.52;16.00;;;;;;;15.93;100.00;97666.41;10456419;28;20633;-57
2022/06/13 05:17:28;;;;;;;29.85;16.27;;;;;;;15.92;100.00;97663.81;10446191;28;20063;-57
2022/06/13 05:22:44;;;;;;;28.77;16.67;;;;;;;15.76;100.00;97673.75;10454370;28;20490;-57
2022/06/13 05:27:43;;;;;;;30.90;17.63;;;;;;;15.76;100.00;97673.75;10458349;28;20056;-57
2022/06/13 05:32:44;;;;;;;28.35;17.65;;;;;;;16.00;100.00;97672.38;10456970;28;20027;-57
2022/06/13 05:37:43;;;;;;;31.27;18.80;;;;;;;16.18;100.00;97674.50;10458116;28;20059;-57
2022/06/13 05:42:42;;;;;;;31.75;18.23;;;;;;;16.23;100.00;97679.63;10457769;28;20052;-57
2022/06/13 05:47:43;;;;;;;31.25;19.45;;;;;;;16.29;100.00;97680.34;10452103;28;20426;-57
2022/06/13 05:52:43;;;;;;;34.30;20.08;;;;;;;16.41;100.00;97679.16;10460641;28;20498;-57
2022/06/13 05:57:42;;;;;;;34.42;19.85;;;;;;;16.59;100.00;97684.84;10448230;28;20071;-57
2022/06/13 06:02:41;;;;;;;32.05;18.60;;;;;;;16.66;100.00;97689.03;10418019;28;20029;-57
2022/06/13 06:07:41;;;;;;;28.10;17.35;;;;;;;16.77;100.00;97666.03;10450971;28;20048;-57
2022/06/13 06:12:40;;;;;;;28.80;18.02;;;;;;;17.07;100.00;97695.78;10457324;28;20502;-57
2022/06/13 06:17:39;;;;;;;26.30;17.75;;;;;;;17.06;100.00;97688.81;10448933;28;20494;-57
2022/06/13 06:22:38;;;;;;;26.75;17.88;;;;;;;17.18;100.00;97692.84;10449966;28;20391;-57
2022/06/13 06:27:37;;;;;;;27.40;16.10;;;;;;;16.92;100.00;97691.81;10457878;28;20497;-57
2022/06/13 06:32:36;;;;;;;23.60;15.88;;;;;;;16.95;100.00;97695.25;10457536;28;20066;-57
2022/06/13 06:37:39;;;;;;;26.02;15.88;;;;;;;17.04;100.00;97695.00;10458337;28;20042;-57
2022/06/13 06:42:38;;;;;;;24.52;14.50;;;;;;;17.42;100.00;97704.38;10458451;28;20074;-58
2022/06/13 06:47:39;;;;;;;21.88;13.10;;;;;;;17.74;100.00;97706.06;10455108;28;20035;-57
2022/06/13 06:52:38;;;;;;;20.27;12.82;;;;;;;17.96;100.00;97702.78;10454613;28;20483;-57
2022/06/13 07:02:57;;;;;;;13.93;10.38;;;;;;;18.78;100.00;97703.63;10472952;28;20062;-57
2022/06/13 07:07:56;;;;;;;12.88;9.75;;;;;;;18.94;99.20;97698.69;10470319;28;20058;-57
2022/06/13 07:12:54;;;;;;;14.52;10.02;;;;;;;19.26;100.00;97692.25;10463908;28;20034;-57
2022/06/13 07:17:53;;;;;;;12.02;9.35;;;;;;;19.29;97.66;97689.50;10458502;28;20482;-58
2022/06/13 07:22:53;;;;;;;14.60;10.60;;;;;;;19.05;96.13;97696.53;10475614;28;20051;-58
2022/06/13 07:27:53;;;;;;;16.58;10.88;;;;;;;19.36;98.90;97709.41;10474571;28;20051;-58
2022/06/13 07:32:54;;;;;;;12.48;8.70;;;;;;;19.79;94.89;97706.94;10460095;28;20599;-58
2022/06/13 07:43:23;;;;;;;11.13;7.97;;;;;;;20.84;93.66;97698.28;10452728;28;20060;-58
2022/06/13 07:48:22;;;;;;;9.98;7.57;;;;;;;20.65;87.71;97701.72;10447508;28;20115;-58
2022/06/13 07:53:21;;;;;;;9.77;7.05;;;;;;;20.70;87.99;97704.16;10469088;28;20071;-58
2022/06/13 07:58:25;;;;;;;9.95;6.88;;;;;;;20.68;87.33;97700.72;10428767;28;20067;-58
2022/06/13 08:03:28;;;;;;;9.57;6.25;;;;;;;21.03;89.02;97701.88;10435841;28;20497;-58
2022/06/13 08:08:27;;;;;;;7.38;5.75;;;;;;;21.28;85.99;97706.06;10456478;28;20063;-58
2022/06/13 08:13:27;;;;;;;8.48;5.70;;;;;;;21.16;85.92;97693.41;10461970;28;20067;-58
2022/06/13 08:18:26;;;;;;;7.38;5.90;;;;;;;21.20;88.66;97689.69;10460988;28;20060;-58
2022/06/13 08:23:25;;;;;;;6.85;5.15;;;;;;;21.43;88.78;97692.19;10462594;28;20506;-58
2022/06/13 08:28:24;;;;;;;6.90;4.90;;;;;;;21.33;86.13;97682.94;10463070;28;20506;-58
2022/06/13 08:33:23;;;;;;;7.60;5.20;;;;;;;21.43;86.12;97684.25;10462945;28;20079;-58
2022/06/13 08:38:23;;;;;;;6.32;5.00;;;;;;;21.28;87.75;97662.03;10456838;28;20059;-58
2022/06/13 08:43:44;;;;;;;5.85;4.47;;;;;;;21.37;83.54;97673.13;10456781;28;20081;-58
2022/06/13 08:48:47;;;;;;;7.03;4.60;;;;;;;21.52;84.16;97680.31;10481784;28;20055;-58
2022/06/13 08:53:55;;;;;;;5.30;4.28;;;;;;;21.77;80.97;97675.59;10469791;28;20510;-58
2022/06/13 08:59:24;;;;;;;5.22;4.40;;;;;;;22.15;81.28;97672.91;10451855;28;20120;-58
2022/06/13 09:04:30;;;;;;;5.97;4.05;;;;;;;22.36;77.87;97668.34;10476349;28;20055;-58
2022/06/13 09:09:52;;;;;;;4.88;3.35;;;;;;;22.84;72.57;97662.50;10476434;28;20479;-58
2022/06/13 09:15:03;;;;;;;3.90;3.35;;;;;;;23.22;69.63;97663.94;10482136;28;20059;-58
2022/06/13 09:20:07;;;;;;;5.68;3.70;;;;;;;23.08;70.84;97657.69;10485178;28;20055;-58
2022/06/13 09:25:16;;;;;;;5.93;3.70;;;;;;;23.15;68.16;97659.06;10478244;28;20059;-58
2022/06/13 09:30:27;;;;;;;7.50;4.13;;;;;;;23.60;72.12;97645.13;10473937;28;20112;-58
2022/06/13 09:35:33;;;;;;;5.22;3.92;;;;;;;24.04;69.22;97632.97;10485491;28;20080;-58
2022/06/13 09:40:38;;;;;;;4.93;3.70;;;;;;;23.96;68.36;97640.50;10462819;28;20444;-58
2022/06/13 09:45:49;;;;;;;5.68;4.18;;;;;;;24.35;67.31;97632.06;10444021;28;20055;-58
2022/06/13 09:51:10;;;;;;;4.82;4.05;;;;;;;24.00;65.31;97632.28;10459745;28;20478;-58
2022/06/13 09:56:23;;;;;;;5.35;4.35;;;;;;;24.39;68.55;97623.00;10385995;28;20083;-58
2022/06/13 10:01:51;;;;;;;5.32;4.50;;;;;;;25.09;67.57;97614.41;10417367;28;20056;-58
2022/06/13 10:07:03;;;;;;;7.85;4.30;;;;;;;25.10;59.46;97598.34;10407745;28;20048;-58
2022/06/13 10:12:12;;;;;;;4.43;3.75;;;;;;;25.24;59.70;97609.91;10415691;28;20055;-58
2022/06/13 10:17:49;;;;;;;6.00;4.15;;;;;;;25.01;59.46;97576.84;10416594;28;20060;-58
2022/06/13 10:23:11;;;;;;;4.80;3.92;;;;;;;24.98;58.86;97608.88;10416913;28;20075;-58
2022/06/13 10:28:10;;;;;;;6.22;4.60;;;;;;;24.90;57.72;97596.94;10382836;28;20052;-58
2022/06/13 10:33:21;;;;;;;4.20;3.80;;;;;;;25.04;56.45;97604.06;10375727;28;20115;-58
2022/06/13 10:38:46;;;;;;;5.13;3.90;;;;;;;25.13;57.31;97597.31;10396061;28;20063;-58
2022/06/13 10:43:45;;;;;;;5.28;3.80;;;;;;;25.07;57.23;97592.38;10415472;28;20052;-58
2022/06/13 10:48:53;;;;;;;6.28;4.43;;;;;;;25.36;60.21;97592.34;10415967;28;20096;-58
2022/06/13 10:54:10;;;;;;;5.32;4.13;;;;;;;25.77;59.16;97578.25;10432704;28;20082;-58
2022/06/13 10:59:28;;;;;;;5.60;4.22;;;;;;;25.58;55.55;97583.91;10456718;28;20059;-59
2022/06/13 11:04:29;;;;;;;5.07;3.80;;;;;;;25.63;58.57;97579.97;10460613;28;20059;-58
2022/06/13 11:09:39;;;;;;;4.30;3.83;;;;;;;26.24;57.79;97569.78;10454091;28;20487;-58
2022/06/13 11:25:24;;;;;;;4.40;3.70;;;;;;;26.65;53.66;97546.59;10456250;28;20060;-58
2022/06/13 11:30:25;;;;;;;4.15;3.75;;;;;;;26.05;54.46;97540.88;10456233;28;20056;-58
2022/06/13 11:35:31;;;;;;;5.43;3.47;;;;;;;25.99;54.86;97530.66;10456180;28;20055;-58
2022/06/13 11:40:30;;;;;;;5.70;3.72;;;;;;;26.48;52.96;97532.66;10455743;28;20055;-58
2022/06/13 11:45:29;;;;;;;6.45;4.30;;;;;;;26.44;48.32;97527.66;10456193;28;20032;-58
2022/06/13 11:50:30;;;;;;;6.50;3.83;;;;;;;26.37;51.16;97513.94;10452843;28;20458;-58
2022/06/13 11:55:31;;;;;;;5.82;3.72;;;;;;;26.24;52.26;97519.25;10431450;28;20075;-58
2022/06/13 12:00:49;;;;;;;9.45;4.30;;;;;;;26.27;53.11;97512.84;10414183;28;20067;-58
2022/06/13 12:05:55;;;;;;;6.10;3.83;;;;;;;26.27;53.15;97513.69;10424925;28;20055;-58
2022/06/13 12:10:59;;;;;;;5.65;4.10;;;;;;;26.25;52.89;97502.31;10454133;28;20345;-58
2022/06/13 12:16:32;;;;;;;5.50;4.25;;;;;;;26.31;53.94;97493.91;10443047;28;20443;-58
2022/06/13 12:21:44;;;;;;;6.25;4.30;;;;;;;26.38;54.29;97489.03;10394332;28;20086;-58
2022/06/13 12:26:57;;;;;;;5.15;4.13;;;;;;;26.52;55.14;97486.25;10425428;28;20052;-58
2022/06/13 12:32:16;;;;;;;4.95;3.90;;;;;;;26.35;54.35;97483.94;10454295;28;20482;-58
2022/06/13 12:37:32;;;;;;;4.97;4.47;;;;;;;26.66;52.46;97473.78;10453828;28;20123;-58
2022/06/13 12:43:15;;;;;;;6.45;4.32;;;;;;;26.36;50.48;97474.97;10423333;28;20470;-58
2022/06/13 12:48:47;;;;;;;5.28;4.25;;;;;;;26.64;51.52;97465.91;10452719;28;20483;-58
2022/06/13 12:54:12;;;;;;;5.20;4.03;;;;;;;26.52;49.12;97451.66;10460846;28;20491;-58
2022/06/13 12:59:24;;;;;;;6.93;4.63;;;;;;;26.50;50.29;97444.75;10453880;28;20071;-58
2022/06/13 13:04:32;;;;;;;4.88;4.20;;;;;;;26.69;47.89;97442.47;10456010;28;20056;-58
2022/06/13 13:09:46;;;;;;;5.80;4.93;;;;;;;26.57;47.31;97438.88;10455599;28;20107;-58
2022/06/13 13:14:51;;;;;;;5.35;4.55;;;;;;;26.46;45.13;97428.13;10456117;28;20055;-58
2022/06/13 13:19:53;;;;;;;5.63;4.85;;;;;;;26.53;46.89;97429.44;10423794;28;20592;-58
2022/06/13 13:25:24;;;;;;;6.75;4.95;;;;;;;26.53;46.27;97418.78;10443560;28;20051;-58
2022/06/13 13:30:31;;;;;;;7.90;5.00;;;;;;;26.69;45.54;97425.66;10454318;28;20052;-59
2022/06/13 13:36:20;;;;;;;6.60;5.50;;;;;;;26.74;42.35;97415.53;10460434;28;20062;-58
2022/06/13 13:41:39;;;;;;;7.63;6.13;;;;;;;26.89;42.29;97414.44;10457141;28;20075;-58
2022/06/13 13:47:14;;;;;;;7.10;5.82;;;;;;;26.51;41.25;97418.03;10460538;28;20589;-58
2022/06/13 13:52:16;;;;;;;6.32;5.68;;;;;;;26.77;42.59;97412.66;10428661;28;20553;-58
2022/06/13 13:57:19;;;;;;;8.07;5.90;;;;;;;27.10;43.30;97409.38;10463009;28;20055;-58
2022/06/13 14:02:46;;;;;;;6.93;5.72;;;;;;;27.10;41.07;97411.19;10439194;28;20063;-58
2022/06/13 14:08:04;;;;;;;7.25;6.20;;;;;;;27.31;41.52;97411.41;10432045;28;20059;-58
2022/06/13 14:13:06;;;;;;;8.52;5.70;;;;;;;27.01;41.89;97406.53;10455688;28;20048;-58
2022/06/13 14:18:10;;;;;;;8.05;6.15;;;;;;;27.22;43.31;97399.63;10452745;28;20055;-58
2022/06/13 14:23:16;;;;;;;10.07;6.60;;;;;;;27.56;43.63;97407.75;10447563;28;20083;-58
2022/06/13 14:28:18;;;;;;;7.28;5.93;;;;;;;27.74;42.54;97393.03;10438028;28;20063;-58
2022/06/13 14:38:52;;;;;;;6.72;5.30;;;;;;;27.36;41.56;97378.13;10460308;28;20056;-58
2022/06/13 14:44:00;;;;;;;8.70;6.25;;;;;;;27.24;43.39;97388.81;10451375;28;20055;-58
2022/06/13 14:49:33;;;;;;;5.80;5.20;;;;;;;27.00;43.58;97373.69;10456702;28;20518;-59
2022/06/13 14:54:40;;;;;;;5.70;5.10;;;;;;;27.20;43.66;97372.25;10456688;28;20083;-58
2022/06/13 15:00:01;;;;;;;8.65;5.80;;;;;;;27.30;44.37;97365.25;10428072;28;20059;-59
2022/06/13 15:05:03;;;;;;;6.53;5.72;;;;;;;27.17;43.99;97375.97;10440375;28;20075;-58
2022/06/13 15:10:16;;;;;;;7.45;6.00;;;;;;;26.89;44.58;97363.88;10454188;28;20059;-58
2022/06/13 15:15:27;;;;;;;8.25;6.22;;;;;;;26.85;45.79;97377.50;10413696;28;20122;-58
2022/06/13 15:20:33;;;;;;;12.93;6.53;;;;;;;26.95;46.19;97375.88;10449213;28;20070;-58
2022/06/13 15:25:48;;;;;;;11.80;6.70;;;;;;;26.96;46.10;97370.44;10448540;28;20060;-58
2022/06/13 15:31:04;;;;;;;8.05;5.80;;;;;;;26.91;45.78;97364.59;10446491;28;20067;-58
2022/06/13 15:36:12;;;;;;;7.05;5.97;;;;;;;26.89;46.55;97369.19;10452440;28;20125;-58
2022/06/13 15:41:28;;;;;;;6.53;5.65;;;;;;;26.51;47.74;97372.78;10452940;28;20487;-58
2022/06/13 15:46:29;;;;;;;6.90;5.65;;;;;;;26.37;47.85;97378.25;10451448;28;20067;-58
2022/06/13 15:51:30;;;;;;;7.05;6.32;;;;;;;26.19;48.37;97372.38;10452539;28;20070;-58
2022/06/13 15:56:32;;;;;;;7.00;5.63;;;;;;;26.25;49.39;97377.28;10453070;28;20075;-58
2022/06/13 16:01:43;;;;;;;7.57;5.65;;;;;;;26.03;49.03;97385.06;10453735;28;20060;-58
2022/06/13 16:06:46;;;;;;;6.80;5.72;;;;;;;25.96;49.56;97389.94;10454892;28;20060;-58
2022/06/13 16:11:48;;;;;;;6.43;5.35;;;;;;;26.00;49.75;97386.13;10462559;28;20467;-58
2022/06/13 16:16:49;;;;;;;8.73;5.53;;;;;;;26.06;49.82;97383.03;10461120;28;20117;-58
2022/06/13 16:21:50;;;;;;;8.00;5.28;;;;;;;25.84;51.50;97396.13;10461271;28;20059;-58
2022/06/13 16:26:50;;;;;;;6.78;5.10;;;;;;;25.81;52.50;97391.00;10461250;28;20056;-58
2022/06/13 16:31:50;;;;;;;7.60;5.22;;;;;;;25.68;53.94;97402.47;10460658;28;20062;-59
2022/06/13 16:36:49;;;;;;;6.35;5.25;;;;;;;25.65;54.71;97402.69;10486341;28;20066;-58
2022/06/13 16:41:56;;;;;;;9.93;5.95;;;;;;;25.64;54.20;97398.31;10483847;28;20039;-56
2022/06/13 16:46:59;;;;;;;7.57;5.55;;;;;;;25.57;52.92;97407.66;10470359;28;20051;-56
2022/06/13 16:52:04;;;;;;;6.05;5.45;;;;;;;25.49;53.51;97405.50;10444783;28;20063;-56
2022/06/13 16:57:16;;;;;;;7.68;6.00;;;;;;;25.38;54.30;97412.47;10462692;28;20067;-56
2022/06/13 17:02:15;;;;;;;8.05;6.30;;;;;;;25.26;54.85;97422.97;10463328;28;20494;-57
2022/06/13 17:07:23;;;;;;;7.78;6.10;;;;;;;25.16;55.78;97427.19;10462563;28;20490;-58
2022/06/13 17:12:23;;;;;;;8.77;6.65;;;;;;;25.24;56.95;97430.16;10462485;28;20071;-58
2022/06/13 17:17:28;;;;;;;8.63;6.57;;;;;;;24.86;57.67;97420.25;10462435;28;20078;-58
2022/06/13 17:22:28;;;;;;;9.27;6.78;;;;;;;24.74;59.66;97425.47;10461648;28;20059;-58
2022/06/13 17:32:46;;;;;;;13.48;8.13;;;;;;;24.24;61.42;97414.44;10462292;28;20395;-58
2022/06/13 17:37:45;;;;;;;11.35;7.57;;;;;;;23.97;63.08;97420.44;10461358;28;20060;-58
2022/06/13 17:42:44;;;;;;;14.52;7.95;;;;;;;23.67;63.91;97416.97;10460848;28;20062;-58
2022/06/13 17:47:46;;;;;;;11.00;8.20;;;;;;;23.35;65.42;97417.91;10458765;28;20063;-58
2022/06/13 17:52:45;;;;;;;14.95;9.15;;;;;;;23.04;67.02;97424.09;10457781;28;20541;-59
2022/06/13 17:57:45;;;;;;;10.20;8.00;;;;;;;22.75;69.03;97423.09;10455414;28;20451;-58
2022/06/13 18:02:48;;;;;;;12.30;8.90;;;;;;;22.49;70.61;97427.97;10457825;28;20055;-59
2022/06/13 18:07:50;;;;;;;11.52;8.63;;;;;;;22.28;71.93;97437.91;10456962;28;20154;-59
2022/06/13 18:12:49;;;;;;;14.15;9.70;;;;;;;22.06;73.35;97437.34;10456044;28;20063;-58
2022/06/13 18:17:48;;;;;;;12.38;9.80;;;;;;;21.82;74.65;97448.22;10456973;28;20066;-58
2022/06/13 18:22:47;;;;;;;16.83;10.32;;;;;;;21.57;76.13;97460.94;10456483;28;20075;-58
2022/06/13 18:27:48;;;;;;;14.95;10.48;;;;;;;21.34;76.87;97462.97;10455920;28;20056;-59
2022/06/13 18:32:48;;;;;;;15.65;10.93;;;;;;;21.13;77.44;97470.97;10455546;28;20074;-58
2022/06/13 18:37:47;;;;;;;13.90;9.52;;;;;;;20.98;78.64;97490.13;10455893;28;20067;-58
2022/06/13 18:42:48;;;;;;;15.00;10.90;;;;;;;20.83;79.54;97498.78;10455391;28;20067;-58
2022/06/13 18:47:48;;;;;;;16.58;11.68;;;;;;;20.66;80.47;97508.34;10455332;28;20052;-58
2022/06/13 18:52:48;;;;;;;15.55;10.88;;;;;;;20.50;81.41;97508.16;10455255;28;20102;-58
2022/06/13 18:57:47;;;;;;;14.13;10.63;;;;;;;20.34;82.94;97527.34;10454636;28;20064;-58
2022/06/13 19:03:04;;;;;;;15.77;11.32;;;;;;;20.16;84.38;97524.56;10455380;28;20056;-58
2022/06/13 19:08:06;;;;;;;13.43;11.43;;;;;;;20.02;85.38;97532.22;10454886;28;20580;-58
2022/06/13 19:13:09;;;;;;;14.20;12.23;;;;;;;19.86;86.41;97532.88;10454417;28;20513;-58
2022/06/13 19:18:15;;;;;;;13.00;11.35;;;;;;;19.74;86.93;97532.50;10454640;28;20062;-58
2022/06/13 19:23:17;;;;;;;15.73;11.75;;;;;;;19.71;87.38;97522.97;10454620;28;20059;-59
2022/06/13 19:28:19;;;;;;;20.98;13.68;;;;;;;19.67;87.69;97542.44;10453906;28;20074;-58
2022/06/13 19:33:20;;;;;;;20.38;14.52;;;;;;;19.51;89.29;97542.19;10444520;28;20063;-59
2022/06/13 19:38:19;;;;;;;21.83;14.68;;;;;;;19.51;89.48;97552.72;10427454;28;20064;-59
2022/06/13 19:43:20;;;;;;;20.00;13.43;;;;;;;19.41;89.54;97539.03;10437316;28;20070;-58
2022/06/13 19:48:19;;;;;;;19.77;12.85;;;;;;;19.32;91.52;97557.88;10465161;28;20059;-59
2022/06/13 19:53:19;;;;;;;19.58;13.48;;;;;;;19.27;90.99;97544.00;10435127;28;20076;-58
2022/06/13 19:58:21;;;;;;;17.77;13.00;;;;;;;19.16;91.04;97541.81;10424909;28;20128;-59
2022/06/13 20:03:20;;;;;;;19.52;12.40;;;;;;;19.18;91.01;97560.16;10447121;28;20063;-59
2022/06/13 20:08:25;;;;;;;19.33;13.95;;;;;;;19.08;90.81;97548.28;10423589;28;20048;-59
2022/06/13 20:13:28;;;;;;;16.27;13.00;;;;;;;19.02;90.72;97544.13;10423091;28;20514;-58
2022/06/13 20:18:30;;;;;;;14.52;12.10;;;;;;;18.94;90.90;97551.44;10433499;28;20078;-58
2022/06/13 20:23:29;;;;;;;14.02;12.10;;;;;;;18.73;92.47;97563.59;10440368;28;20071;-58
2022/06/13 20:28:28;;;;;;;20.48;12.38;;;;;;;18.46;93.73;97571.56;10422515;28;20108;-58
2022/06/13 20:33:34;;;;;;;16.30;13.15;;;;;;;18.22;94.82;97570.63;10422666;28;20043;-59
2022/06/13 20:38:35;;;;;;;19.23;14.52;;;;;;;18.11;95.06;97568.38;10447823;28;20055;-58
2022/06/13 20:43:37;;;;;;;18.00;13.52;;;;;;;18.01;95.25;97559.13;10441860;28;20070;-59
2022/06/13 20:48:41;;;;;;;18.15;12.13;;;;;;;17.90;95.54;97569.13;10441431;28;20067;-59
2022/06/13 20:53:41;;;;;;;16.92;13.32;;;;;;;17.78;95.38;97567.75;10440358;28;20118;-58
2022/06/13 20:58:40;;;;;;;20.55;14.10;;;;;;;17.76;95.52;97582.66;10447658;28;20494;-58
2022/06/13 21:03:43;;;;;;;17.85;14.77;;;;;;;17.68;95.92;97582.91;10459880;28;20472;-58
2022/06/13 21:14:01;;;;;;;20.25;14.65;;;;;;;17.42;97.72;97588.97;10460097;28;20462;-58
2022/06/13 21:19:01;;;;;;;19.98;14.05;;;;;;;17.26;99.16;97606.97;10459146;28;20067;-58
2022/06/13 21:24:03;;;;;;;27.70;13.90;;;;;;;17.20;98.89;97601.91;10458655;28;20063;-59
2022/06/13 21:29:04;;;;;;;19.20;14.48;;;;;;;17.27;98.51;97611.28;10458840;28;20487;-58
2022/06/13 21:34:03;;;;;;;23.65;15.45;;;;;;;17.23;98.93;97622.78;10450541;28;20064;-58
2022/06/13 21:39:03;;;;;;;22.35;16.35;;;;;;;17.23;98.93;97616.69;10458017;28;20461;-58
2022/06/13 21:44:02;;;;;;;22.92;17.08;;;;;;;17.24;99.19;97619.25;10458138;28;20054;-58
2022/06/13 21:49:03;;;;;;;21.27;16.17;;;;;;;17.16;99.25;97600.25;10432963;28;20060;-58
2022/06/13 21:54:02;;;;;;;22.85;17.63;;;;;;;17.23;99.31;97611.44;10461035;28;20397;-58
2022/06/13 21:59:01;;;;;;;24.80;16.63;;;;;;;17.17;99.54;97614.22;10439559;28;20086;-58
2022/06/13 22:04:00;;;;;;;26.05;17.83;;;;;;;17.12;99.81;97619.59;10440517;28;20064;-58
2022/06/13 22:09:00;;;;;;;23.80;17.17;;;;;;;16.99;100.00;97619.13;10417032;28;20420;-58
2022/06/13 22:13:59;;;;;;;25.20;17.92;;;;;;;16.98;100.00;97616.53;10417430;28;20435;-58
2022/06/13 22:18:58;;;;;;;24.05;18.20;;;;;;;16.89;100.00;97608.03;10416748;28;20071;-58
2022/06/13 22:23:57;;;;;;;25.58;17.48;;;;;;;16.91;100.00;97611.47;10416690;28;20056;-58
2022/06/13 22:28:56;;;;;;;27.52;19.48;;;;;;;16.99;100.00;97605.16;10440789;28;20095;-58
2022/06/13 22:33:55;;;;;;;29.25;19.90;;;;;;;17.00;100.00;97612.09;10416640;28;20060;-58
2022/06/13 22:38:55;;;;;;;24.70;18.10;;;;;;;16.95;100.00;97600.91;10398001;28;20119;-58
2022/06/13 22:43:54;;;;;;;28.25;18.48;;;;;;;16.93;100.00;97601.81;10427721;28;20058;-58
2022/06/13 22:54:10;;;;;;;25.73;16.30;;;;;;;16.63;100.00;97602.63;10458062;28;20091;-58
2022/06/13 22:59:09;;;;;;;21.27;16.17;;;;;;;16.46;100.00;97601.31;10458122;28;20020;-58
2022/06/13 23:04:08;;;;;;;24.42;17.13;;;;;;;16.32;100.00;97579.88;10456929;28;20056;-59
2022/06/13 23:09:07;;;;;;;26.05;17.65;;;;;;;16.35;100.00;97582.44;10428814;28;20028;-58
2022/06/13 23:14:07;;;;;;;;;;;;;;;16.38;100.00;97590.22;10441839;28;20415;-57
2022/06/13 23:19:06;;;;;;;26.13;16.63;;;;;;;16.13;100.00;97581.28;10454607;28;19970;-57
2022/06/13 23:24:05;;;;;;;;;;;;;;;16.10;100.00;97590.09;10455558;28;20039;-57
2022/06/13 23:29:05;;;;;;;24.10;16.20;;;;;;;16.12;100.00;97590.06;10455124;28;19912;-57
2022/06/13 23:34:05;;;;;;;26.50;16.30;;;;;;;16.14;100.00;97575.13;10455763;28;20063;-57
2022/06/13 23:39:04;;;;;;;21.88;15.93;;;;;;;16.14;100.00;97575.13;10455243;28;20070;-57
2022/06/13 23:44:03;;;;;;;;;;;;;;;16.11;100.00;97560.38;10456390;28;20024;-57
2022/06/13 23:49:04;;;;;;;26.63;17.13;;;;;;;16.10;100.00;97563.91;10456617;28;19947;-57
2022/06/13 23:54:03;;;;;;;23.60;16.30;;;;;;;16.06;100.00;97560.50;10455981;28;20309;-57
2022/06/13 23:59:02;;;;;;;25.27;17.88;;;;;;;16.02;100.00;97577.19;10456132;28;20071;-57
